createdAt,value
2023-01-17T00:03:31.400Z,3.80
2023-01-17T00:07:51.613Z,3.70
2023-01-17T00:11:53.370Z,3.80
2023-01-17T00:15:55.008Z,3.70
2023-01-17T00:20:17.711Z,3.70
2023-01-17T00:24:39.286Z,3.60
2023-01-17T00:28:42.642Z,3.60
2023-01-17T00:32:44.245Z,3.70
2023-01-17T00:36:45.856Z,3.60
2023-01-17T00:40:48.308Z,3.50
2023-01-17T00:45:08.756Z,3.40
2023-01-17T00:49:29.360Z,3.40
2023-01-17T00:53:49.760Z,3.20
2023-01-17T00:58:09.909Z,3.20
2023-01-17T01:02:30.572Z,3.10
2023-01-17T01:06:50.855Z,3.10
2023-01-17T01:11:11.552Z,3.10
2023-01-17T01:15:32.037Z,3.10
2023-01-17T01:19:52.545Z,3.10
2023-01-17T01:24:12.998Z,3.10
2023-01-17T01:28:34.272Z,3.10
2023-01-17T01:32:55.653Z,3.10
2023-01-17T01:36:57.416Z,3.10
2023-01-17T01:40:59.066Z,3.10
2023-01-17T01:45:00.791Z,3.00
2023-01-17T01:49:06.311Z,2.90
2023-01-17T01:53:08.098Z,3.00
2023-01-17T01:57:16.745Z,3.00
2023-01-17T02:01:19.195Z,2.90
2023-01-17T02:05:23.575Z,2.90
2023-01-17T02:09:25.201Z,3.00
2023-01-17T02:13:28.283Z,3.00
2023-01-17T02:17:35.706Z,3.00
2023-01-17T02:21:49.553Z,2.90
2023-01-17T02:26:20.191Z,2.90
2023-01-17T02:30:32.055Z,3.00
2023-01-17T02:34:56.049Z,2.90
2023-01-17T02:39:17.124Z,3.00
2023-01-17T02:43:21.224Z,2.90
2023-01-17T02:47:28.647Z,2.90
2023-01-17T02:51:47.313Z,2.90
2023-01-17T02:56:09.086Z,2.90
2023-01-17T03:00:42.439Z,3.00
2023-01-17T03:04:54.286Z,3.00
2023-01-17T03:08:55.984Z,2.90
2023-01-17T03:12:59.596Z,2.90
2023-01-17T03:17:01.283Z,2.80
2023-01-17T03:21:02.929Z,2.90
2023-01-17T03:25:05.563Z,2.80
2023-01-17T03:29:07.276Z,2.80
2023-01-17T03:33:09.165Z,2.70
2023-01-17T03:37:10.835Z,2.80
2023-01-17T03:41:12.518Z,2.80
2023-01-17T03:45:14.269Z,2.70
2023-01-17T03:49:16.558Z,2.80
2023-01-17T03:53:18.340Z,2.70
2023-01-17T03:57:20.094Z,2.70
2023-01-17T04:01:21.790Z,2.60
2023-01-17T04:05:23.533Z,2.60
2023-01-17T04:09:25.153Z,2.50
2023-01-17T04:13:26.854Z,2.50
2023-01-17T04:17:28.801Z,2.50
2023-01-17T04:21:30.657Z,2.40
2023-01-17T04:25:33.066Z,2.40
2023-01-17T04:29:34.729Z,2.40
2023-01-17T04:33:36.357Z,2.40
2023-01-17T04:37:38.105Z,2.40
2023-01-17T04:41:39.842Z,2.40
2023-01-17T04:45:41.468Z,2.40
2023-01-17T04:49:44.212Z,2.40
2023-01-17T04:53:46.836Z,2.50
2023-01-17T04:57:48.512Z,2.40
2023-01-17T05:01:50.210Z,2.40
2023-01-17T05:05:51.955Z,2.40
2023-01-17T05:09:53.693Z,2.30
2023-01-17T05:13:55.360Z,2.30
2023-01-17T05:17:57.044Z,2.30
2023-01-17T05:22:03.940Z,2.20
2023-01-17T05:26:05.934Z,2.20
2023-01-17T05:30:08.116Z,2.20
2023-01-17T05:34:09.976Z,2.30
2023-01-17T05:38:11.607Z,2.30
2023-01-17T05:42:13.315Z,2.40
2023-01-17T05:46:16.053Z,2.30
2023-01-17T05:50:23.187Z,2.40
2023-01-17T05:54:24.937Z,2.40
2023-01-17T05:58:26.879Z,2.40
2023-01-17T06:02:28.570Z,2.40
2023-01-17T06:06:30.241Z,2.40
2023-01-17T06:10:32.357Z,2.30
2023-01-17T06:14:34.092Z,2.30
2023-01-17T06:18:35.734Z,2.30
2023-01-17T06:22:37.395Z,2.10
2023-01-17T06:26:39.021Z,2.00
2023-01-17T06:30:41.676Z,2.00
2023-01-17T06:34:43.476Z,2.00
2023-01-17T06:38:45.181Z,2.00
2023-01-17T06:42:46.842Z,2.00
2023-01-17T06:46:48.636Z,2.00
2023-01-17T06:50:50.553Z,2.10
2023-01-17T06:54:52.239Z,2.10
2023-01-17T06:58:53.862Z,2.00
2023-01-17T07:02:55.502Z,2.10
2023-01-17T07:06:57.212Z,2.10
2023-01-17T07:11:00.984Z,2.10
2023-01-17T07:15:02.827Z,2.10
2023-01-17T07:19:04.537Z,2.20
2023-01-17T07:23:06.616Z,2.20
2023-01-17T07:27:08.534Z,2.10
2023-01-17T07:31:10.267Z,2.10
2023-01-17T07:35:11.921Z,2.10
2023-01-17T07:39:13.717Z,2.20
2023-01-17T07:43:15.392Z,2.10
2023-01-17T07:47:17.010Z,2.10
2023-01-17T07:51:18.869Z,2.20
2023-01-17T07:55:20.653Z,2.10
2023-01-17T07:59:22.341Z,2.00
2023-01-17T08:03:24.004Z,1.90
2023-01-17T08:07:25.723Z,1.80
2023-01-17T08:11:27.380Z,1.80
2023-01-17T08:15:29.143Z,2.00
2023-01-17T08:19:30.782Z,2.10
2023-01-17T08:23:32.461Z,2.10
2023-01-17T08:27:35.564Z,2.20
2023-01-17T08:31:37.981Z,2.30
2023-01-17T08:35:39.700Z,2.40
2023-01-17T08:39:41.372Z,2.50
2023-01-17T08:43:43.005Z,2.40
2023-01-17T08:47:44.851Z,2.50
2023-01-17T08:51:46.541Z,2.50
2023-01-17T08:55:48.269Z,2.40
2023-01-17T08:59:50.748Z,2.50
2023-01-17T09:03:52.521Z,2.50
2023-01-17T09:07:56.188Z,2.50
2023-01-17T09:11:57.836Z,2.70
2023-01-17T09:16:00.184Z,2.60
2023-01-17T09:20:02.228Z,2.70
2023-01-17T09:24:04.065Z,2.80
2023-01-17T09:28:05.799Z,2.80
2023-01-17T09:32:07.661Z,2.70
2023-01-17T09:36:10.782Z,2.70
2023-01-17T09:40:18.240Z,2.80
2023-01-17T09:44:43.818Z,2.80
2023-01-17T09:48:46.212Z,2.80
2023-01-17T09:52:47.964Z,2.80
2023-01-17T09:57:01.053Z,2.80
2023-01-17T10:01:05.587Z,2.80
2023-01-17T10:05:19.271Z,2.80
2023-01-17T10:09:45.738Z,2.80
2023-01-17T10:14:14.394Z,2.90
2023-01-17T10:18:43.170Z,2.90
2023-01-17T10:22:54.307Z,3.10
2023-01-17T10:27:00.194Z,3.20
2023-01-17T10:31:10.340Z,3.40
2023-01-17T10:35:20.608Z,3.60
2023-01-17T10:39:29.086Z,3.70
2023-01-17T10:43:44.169Z,3.90
2023-01-17T10:47:52.364Z,3.90
2023-01-17T10:52:21.058Z,3.80
2023-01-17T10:56:27.462Z,3.60
2023-01-17T11:00:58.784Z,3.50
2023-01-17T11:05:09.002Z,3.50
2023-01-17T11:09:11.768Z,3.50
2023-01-17T11:13:50.292Z,3.60
2023-01-17T11:18:05.571Z,3.50
2023-01-17T11:22:12.934Z,3.50
2023-01-17T11:26:23.223Z,3.60
2023-01-17T11:30:29.242Z,3.70
2023-01-17T11:34:31.955Z,3.60
2023-01-17T11:38:33.626Z,3.60
2023-01-17T11:42:37.959Z,3.80
2023-01-17T11:46:39.607Z,4.00
2023-01-17T11:51:00.004Z,4.00
2023-01-17T11:55:01.824Z,4.20
2023-01-17T11:59:21.917Z,4.20
2023-01-17T12:03:46.938Z,4.10
2023-01-17T12:07:54.399Z,4.30
2023-01-17T12:12:29.653Z,4.60
2023-01-17T12:16:53.364Z,4.60
2023-01-17T12:21:03.544Z,4.50
2023-01-17T12:25:22.882Z,4.50
2023-01-17T12:29:49.668Z,4.50
2023-01-17T12:34:09.624Z,4.50
2023-01-17T12:38:31.737Z,4.80
2023-01-17T12:42:40.556Z,4.80
2023-01-17T12:47:02.451Z,4.60
2023-01-17T12:51:04.159Z,4.50
2023-01-17T12:55:12.067Z,4.30
2023-01-17T12:59:25.951Z,4.50
2023-01-17T13:03:45.470Z,4.50
2023-01-17T13:08:08.673Z,4.40
2023-01-17T13:12:15.003Z,4.40
2023-01-17T13:16:42.743Z,4.40
2023-01-17T13:20:52.780Z,4.40
2023-01-17T13:25:25.069Z,4.40
2023-01-17T13:29:54.801Z,4.40
2023-01-17T13:34:15.257Z,4.40
2023-01-17T13:38:44.354Z,4.70
2023-01-17T13:42:59.931Z,4.70
2023-01-17T13:47:10.171Z,4.90
2023-01-17T13:51:11.966Z,4.80
2023-01-17T13:55:45.421Z,4.70
2023-01-17T13:59:47.073Z,4.60
2023-01-17T14:03:51.659Z,4.50
2023-01-17T14:08:12.842Z,4.40
2023-01-17T14:12:21.198Z,4.40
2023-01-17T14:16:27.369Z,4.10
2023-01-17T14:20:48.969Z,4.00
2023-01-17T14:24:58.776Z,3.90
2023-01-17T14:29:39.053Z,4.00
2023-01-17T14:33:41.675Z,4.30
2023-01-17T14:37:49.084Z,4.30
2023-01-17T14:41:51.999Z,4.30
2023-01-17T14:46:01.624Z,4.20
2023-01-17T14:50:42.499Z,4.00
2023-01-17T14:54:49.337Z,3.90
2023-01-17T14:59:04.926Z,3.80
2023-01-17T15:03:11.921Z,3.70
2023-01-17T15:07:18.689Z,3.60
2023-01-17T15:11:26.589Z,3.50
2023-01-17T15:15:38.522Z,3.30
2023-01-17T15:19:52.535Z,3.20
2023-01-17T15:24:03.659Z,3.10
2023-01-17T15:28:06.475Z,2.90
2023-01-17T15:32:18.957Z,2.70
2023-01-17T15:36:28.685Z,2.60
2023-01-17T15:40:33.046Z,2.40
2023-01-17T15:44:49.378Z,2.20
2023-01-17T15:48:51.654Z,2.10
2023-01-17T15:53:05.148Z,1.90
2023-01-17T15:57:36.931Z,1.80
2023-01-17T16:01:38.965Z,1.50
2023-01-17T16:05:43.417Z,1.40
2023-01-17T16:09:46.131Z,1.30
2023-01-17T16:13:48.428Z,1.20
2023-01-17T16:17:53.200Z,1.00
2023-01-17T16:21:56.999Z,0.90
2023-01-17T16:25:58.631Z,0.70
2023-01-17T16:30:00.269Z,0.70
2023-01-17T16:34:01.945Z,0.60
2023-01-17T16:38:06.517Z,0.50
2023-01-17T16:42:11.607Z,0.40
2023-01-17T16:46:13.627Z,0.30
2023-01-17T16:50:18.775Z,0.30
2023-01-17T16:54:20.440Z,0.30
2023-01-17T16:58:22.233Z,0.20
2023-01-17T17:02:23.928Z,0.10
2023-01-17T17:06:25.672Z,0.10
2023-01-17T17:10:27.741Z,0.00
2023-01-17T17:14:29.577Z,0.00
2023-01-17T17:18:31.333Z,0.00
2023-01-17T17:22:33.529Z,-0.10
2023-01-17T17:26:36.660Z,-0.10
2023-01-17T17:30:38.681Z,-0.20
2023-01-17T17:34:40.299Z,-0.30
2023-01-17T17:38:50.514Z,-0.30
2023-01-17T17:42:52.133Z,-0.30
2023-01-17T17:46:53.808Z,-0.30
2023-01-17T17:50:59.594Z,-0.40
2023-01-17T17:55:01.447Z,-0.40
2023-01-17T17:59:04.858Z,-0.40
2023-01-17T18:03:06.500Z,-0.40
2023-01-17T18:07:08.227Z,-0.40
2023-01-17T18:11:18.228Z,-0.50
2023-01-17T18:15:21.693Z,-0.50
2023-01-17T18:19:26.266Z,-0.60
2023-01-17T18:23:27.953Z,-0.60
2023-01-17T18:27:29.609Z,-0.60
2023-01-17T18:31:31.709Z,-0.70
2023-01-17T18:35:33.400Z,-0.70
2023-01-17T18:39:35.082Z,-0.70
2023-01-17T18:43:37.047Z,-0.70
2023-01-17T18:47:38.926Z,-0.70
2023-01-17T18:51:41.059Z,-0.70
2023-01-17T18:55:42.708Z,-0.70
2023-01-17T18:59:44.605Z,-0.70
2023-01-17T19:03:48.477Z,-0.80
2023-01-17T19:07:50.187Z,-0.80
2023-01-17T19:11:51.862Z,-0.90
2023-01-17T19:15:58.512Z,-0.90
2023-01-17T19:20:00.575Z,-0.90
2023-01-17T19:24:02.777Z,-1.00
2023-01-17T19:28:04.488Z,-0.90
2023-01-17T19:32:07.267Z,-0.90
2023-01-17T19:36:13.410Z,-1.00
2023-01-17T19:40:17.112Z,-0.90
2023-01-17T19:44:18.839Z,-1.10
2023-01-17T19:48:22.390Z,-1.00
2023-01-17T19:52:24.154Z,-1.00
2023-01-17T19:56:26.413Z,-1.10
2023-01-17T20:00:30.420Z,-1.20
2023-01-17T20:04:32.181Z,-1.10
2023-01-17T20:08:35.024Z,-1.20
2023-01-17T20:12:36.711Z,-1.10
2023-01-17T20:16:38.389Z,-1.20
2023-01-17T20:20:56.236Z,-1.30
2023-01-17T20:24:58.992Z,-1.30
2023-01-17T20:29:02.356Z,-1.30
2023-01-17T20:33:04.004Z,-1.30
2023-01-17T20:37:08.464Z,-1.30
2023-01-17T20:41:14.005Z,-1.40
2023-01-17T20:45:15.912Z,-1.40
2023-01-17T20:49:19.291Z,-1.40
2023-01-17T20:53:21.881Z,-1.40
2023-01-17T20:57:23.522Z,-1.50
2023-01-17T21:01:25.244Z,-1.50
2023-01-17T21:05:27.516Z,-1.50
2023-01-17T21:09:29.198Z,-1.40
2023-01-17T21:13:31.608Z,-1.50
2023-01-17T21:17:34.918Z,-1.50
2023-01-17T21:21:36.562Z,-1.50
2023-01-17T21:25:38.718Z,-1.50
2023-01-17T21:29:40.435Z,-1.60
2023-01-17T21:33:42.049Z,-1.60
2023-01-17T21:37:47.487Z,-1.60
2023-01-17T21:41:50.579Z,-1.60
2023-01-17T21:45:52.302Z,-1.70
2023-01-17T21:49:54.109Z,-1.70
2023-01-17T21:53:55.720Z,-1.60
2023-01-17T21:58:15.902Z,-1.70
2023-01-17T22:02:17.575Z,-1.80
2023-01-17T22:06:21.069Z,-1.80
2023-01-17T22:10:22.713Z,-1.90
2023-01-17T22:14:24.491Z,-1.90
2023-01-17T22:18:27.003Z,-2.00
2023-01-17T22:22:32.254Z,-2.00
2023-01-17T22:26:34.878Z,-2.00
2023-01-17T22:30:37.339Z,-2.00
2023-01-17T22:34:38.988Z,-2.00
2023-01-17T22:38:44.944Z,-2.00
2023-01-17T22:42:46.664Z,-2.00
2023-01-17T22:46:48.426Z,-2.00
2023-01-17T22:50:50.074Z,-2.00
2023-01-17T22:54:51.866Z,-2.20
2023-01-17T22:58:54.348Z,-2.20
2023-01-17T23:02:56.386Z,-2.00
2023-01-17T23:06:58.304Z,-2.20
2023-01-17T23:11:18.746Z,-2.10
2023-01-17T23:15:39.235Z,-2.10
2023-01-17T23:19:48.015Z,-2.10
2023-01-17T23:23:49.678Z,-2.10
2023-01-17T23:28:09.946Z,-2.30
2023-01-17T23:32:11.659Z,-2.40
2023-01-17T23:36:13.266Z,-2.30
2023-01-17T23:40:15.204Z,-2.30
2023-01-17T23:44:16.836Z,-2.20
2023-01-17T23:48:19.557Z,-2.20
2023-01-17T23:52:21.207Z,-2.20
2023-01-17T23:56:24.484Z,-2.30
